createdAt,value
2019-04-07T00:00:23.352Z,48.80
2019-04-07T00:02:54.596Z,48.70
2019-04-07T00:05:25.567Z,48.50
2019-04-07T00:07:56.423Z,48.40
2019-04-07T00:10:27.152Z,48.20
2019-04-07T00:12:58.000Z,48.10
2019-04-07T00:15:29.018Z,48.20
2019-04-07T00:17:59.784Z,48.20
2019-04-07T00:20:30.861Z,48.20
2019-04-07T00:23:01.984Z,48.10
2019-04-07T00:25:32.685Z,48.20
2019-04-07T00:28:04.093Z,48.10
2019-04-07T00:30:35.021Z,48.00
2019-04-07T00:33:06.334Z,48.00
2019-04-07T00:35:37.590Z,48.00
2019-04-07T00:38:08.452Z,48.00
2019-04-07T00:40:39.196Z,47.90
2019-04-07T00:43:10.018Z,48.10
2019-04-07T00:45:40.799Z,48.00
2019-04-07T00:48:12.143Z,48.00
2019-04-07T00:50:43.012Z,47.80
2019-04-07T00:53:13.646Z,47.70
2019-04-07T00:55:45.014Z,47.40
2019-04-07T00:58:15.761Z,47.50
2019-04-07T01:00:47.891Z,47.70
2019-04-07T01:03:18.580Z,47.70
2019-04-07T01:05:49.336Z,47.60
2019-04-07T01:08:20.608Z,47.50
2019-04-07T01:10:51.384Z,47.50
2019-04-07T01:13:22.083Z,47.40
2019-04-07T01:15:52.731Z,47.60
2019-04-07T01:18:24.777Z,47.60
2019-04-07T01:20:55.638Z,47.50
2019-04-07T01:23:26.932Z,47.50
2019-04-07T01:25:57.435Z,47.40
2019-04-07T01:28:28.619Z,47.50
2019-04-07T01:30:59.448Z,47.40
2019-04-07T01:33:30.212Z,47.20
2019-04-07T01:36:00.841Z,47.10
2019-04-07T01:38:32.130Z,46.90
2019-04-07T01:41:29.512Z,46.80
2019-04-07T01:44:14.656Z,46.90
2019-04-07T01:47:06.986Z,46.90
2019-04-07T01:49:59.767Z,47.00
2019-04-07T01:52:49.235Z,46.80
2019-04-07T01:55:28.442Z,46.90
2019-04-07T01:58:14.033Z,46.80
2019-04-07T02:01:11.085Z,46.80
2019-04-07T02:03:52.760Z,46.70
2019-04-07T02:07:01.053Z,47.30
2019-04-07T02:09:46.847Z,46.70
2019-04-07T02:12:32.249Z,46.60
2019-04-07T02:15:20.758Z,46.90
2019-04-07T02:18:09.260Z,46.70
2019-04-07T02:20:59.305Z,46.80
2019-04-07T02:23:54.903Z,46.40
2019-04-07T02:26:47.358Z,46.30
2019-04-07T02:29:35.824Z,46.20
2019-04-07T02:32:32.780Z,46.30
2019-04-07T02:35:20.773Z,46.30
2019-04-07T02:37:57.482Z,46.30
2019-04-07T02:40:39.452Z,46.30
2019-04-07T02:43:23.273Z,46.30
2019-04-07T02:46:13.022Z,46.20
2019-04-07T02:49:05.936Z,46.10
2019-04-07T02:51:50.746Z,46.00
2019-04-07T02:54:29.254Z,46.10
2019-04-07T02:57:15.858Z,46.10
2019-04-07T03:00:02.321Z,46.00
2019-04-07T03:02:45.687Z,46.20
2019-04-07T03:05:34.810Z,46.10
2019-04-07T03:08:25.125Z,45.90
2019-04-07T03:11:18.653Z,45.70
2019-04-07T03:13:55.572Z,45.40
2019-04-07T03:16:47.965Z,45.60
2019-04-07T03:19:39.700Z,45.50
2019-04-07T03:22:44.496Z,45.50
2019-04-07T03:25:43.407Z,45.30
2019-04-07T03:28:23.055Z,45.30
2019-04-07T03:31:17.153Z,45.20
2019-04-07T03:34:04.084Z,45.10
2019-04-07T03:37:20.314Z,45.10
2019-04-07T03:39:56.935Z,45.10
2019-04-07T03:42:53.003Z,45.00
2019-04-07T03:45:45.810Z,45.00
2019-04-07T03:48:38.510Z,45.00
2019-04-07T03:51:26.574Z,45.20
2019-04-07T03:54:22.844Z,45.20
2019-04-07T03:57:11.330Z,45.00
2019-04-07T03:59:59.535Z,44.80
2019-04-07T04:02:54.935Z,44.90
2019-04-07T04:05:47.826Z,44.90
2019-04-07T04:08:26.625Z,45.20
2019-04-07T04:11:19.095Z,44.60
2019-04-07T04:14:05.082Z,44.70
2019-04-07T04:16:49.137Z,44.60
2019-04-07T04:19:20.674Z,44.40
2019-04-07T04:21:52.517Z,44.50
2019-04-07T04:24:23.210Z,44.40
2019-04-07T04:26:53.826Z,44.30
2019-04-07T04:29:24.781Z,44.20
2019-04-07T04:31:55.709Z,44.20
2019-04-07T04:34:27.176Z,44.30
2019-04-07T04:36:57.857Z,44.60
2019-04-07T04:39:29.435Z,44.50
2019-04-07T04:42:00.120Z,44.40
2019-04-07T04:44:31.690Z,44.20
2019-04-07T04:47:02.835Z,44.10
2019-04-07T04:49:33.452Z,44.20
2019-04-07T04:52:05.074Z,44.10
2019-04-07T04:54:35.778Z,44.00
2019-04-07T04:57:08.646Z,43.90
2019-04-07T04:59:38.808Z,44.10
2019-04-07T05:02:10.607Z,44.00
2019-04-07T05:04:41.920Z,43.90
2019-04-07T05:07:12.773Z,43.90
2019-04-07T05:09:49.665Z,43.90
2019-04-07T05:12:16.305Z,43.80
2019-04-07T05:14:46.816Z,43.70
2019-04-07T05:17:17.800Z,43.80
2019-04-07T05:19:48.390Z,43.90
2019-04-07T05:22:19.209Z,43.70
2019-04-07T05:24:50.395Z,44.00
2019-04-07T05:27:21.678Z,43.90
2019-04-07T05:29:52.348Z,44.00
2019-04-07T05:32:23.287Z,44.00
2019-04-07T05:34:54.232Z,43.80
2019-04-07T05:37:25.317Z,43.60
2019-04-07T05:39:56.505Z,43.50
2019-04-07T05:42:27.855Z,43.40
2019-04-07T05:44:59.634Z,43.30
2019-04-07T05:47:30.035Z,43.30
2019-04-07T05:50:03.298Z,43.20
2019-04-07T05:52:36.863Z,43.20
2019-04-07T05:55:05.452Z,43.20
2019-04-07T05:57:36.188Z,43.10
2019-04-07T06:00:11.145Z,43.10
2019-04-07T06:02:41.667Z,43.00
2019-04-07T06:05:12.694Z,43.70
2019-04-07T06:07:43.785Z,43.10
2019-04-07T06:10:15.396Z,43.00
2019-04-07T06:12:47.907Z,43.10
2019-04-07T06:15:22.019Z,43.20
2019-04-07T06:17:51.197Z,43.50
2019-04-07T06:20:22.553Z,43.50
2019-04-07T06:22:54.463Z,43.40
2019-04-07T06:25:25.468Z,43.20
2019-04-07T06:27:56.854Z,43.60
2019-04-07T06:30:30.254Z,44.40
2019-04-07T06:33:00.678Z,44.30
2019-04-07T06:35:31.481Z,44.00
2019-04-07T06:38:06.117Z,44.30
2019-04-07T06:40:34.784Z,44.40
2019-04-07T06:43:06.325Z,53.70
2019-04-07T06:45:44.205Z,49.20
2019-04-07T06:48:14.991Z,47.90
2019-04-07T06:51:01.577Z,46.90
2019-04-07T06:53:46.757Z,47.00
2019-04-07T06:56:26.010Z,46.10
2019-04-07T06:59:18.730Z,45.90
2019-04-07T07:02:14.827Z,45.60
2019-04-07T07:05:00.452Z,45.20
2019-04-07T07:07:50.869Z,45.10
2019-04-07T07:10:41.891Z,44.80
2019-04-07T07:13:34.761Z,45.00
2019-04-07T07:16:28.779Z,45.30
2019-04-07T07:19:08.324Z,45.40
2019-04-07T07:21:47.773Z,45.50
2019-04-07T07:24:22.710Z,45.60
2019-04-07T07:26:50.771Z,45.40
2019-04-07T07:29:21.571Z,45.30
2019-04-07T07:31:53.236Z,45.20
2019-04-07T07:34:24.403Z,45.60
2019-04-07T07:36:57.582Z,45.70
2019-04-07T07:39:27.227Z,46.00
2019-04-07T07:41:58.408Z,46.30
2019-04-07T07:44:33.127Z,46.20
2019-04-07T07:47:01.656Z,47.10
2019-04-07T07:49:35.201Z,46.80
2019-04-07T07:52:04.959Z,46.60
2019-04-07T07:54:35.568Z,46.90
2019-04-07T07:57:06.861Z,46.90
2019-04-07T07:59:39.173Z,46.90
2019-04-07T08:02:11.018Z,46.90
2019-04-07T08:04:42.356Z,47.10
2019-04-07T08:07:15.245Z,47.00
2019-04-07T08:09:45.556Z,46.60
2019-04-07T08:12:16.359Z,47.30
2019-04-07T08:14:50.387Z,47.10
2019-04-07T08:17:19.465Z,47.10
2019-04-07T08:19:50.264Z,47.30
2019-04-07T08:22:31.109Z,47.30
2019-04-07T08:24:53.552Z,47.40
2019-04-07T08:27:24.691Z,47.50
2019-04-07T08:29:57.177Z,47.40
2019-04-07T08:32:30.957Z,47.80
2019-04-07T08:35:03.864Z,47.60
2019-04-07T08:37:32.602Z,47.70
2019-04-07T08:40:07.111Z,47.70
2019-04-07T08:42:35.789Z,47.40
2019-04-07T08:45:06.683Z,47.70
2019-04-07T08:47:38.015Z,47.40
2019-04-07T08:50:09.572Z,47.60
2019-04-07T08:52:43.019Z,47.90
2019-04-07T08:55:13.882Z,47.80
2019-04-07T08:57:44.691Z,47.80
2019-04-07T09:00:20.261Z,47.80
2019-04-07T09:03:01.823Z,47.90
2019-04-07T09:05:28.696Z,48.00
2019-04-07T09:07:57.382Z,48.00
2019-04-07T09:10:49.170Z,48.10
2019-04-07T09:13:19.746Z,48.10
2019-04-07T09:16:00.495Z,48.20
2019-04-07T09:18:53.660Z,47.70
2019-04-07T09:21:57.019Z,47.90
2019-04-07T09:24:38.215Z,48.70
2019-04-07T09:27:34.060Z,48.50
2019-04-07T09:30:11.679Z,47.80
2019-04-07T09:33:04.143Z,47.80
2019-04-07T09:35:48.661Z,47.80
2019-04-07T09:38:50.023Z,47.80
2019-04-07T09:41:39.320Z,47.70
2019-04-07T09:44:19.741Z,47.50
2019-04-07T09:47:16.326Z,47.50
2019-04-07T09:50:04.863Z,47.70
2019-04-07T09:52:54.708Z,47.70
2019-04-07T09:55:57.002Z,47.80
2019-04-07T09:58:55.652Z,47.90
2019-04-07T10:01:35.306Z,48.00
2019-04-07T10:04:12.634Z,47.90
2019-04-07T10:07:02.641Z,48.00
2019-04-07T10:09:45.892Z,48.00
2019-04-07T10:12:29.957Z,48.10
2019-04-07T10:15:25.611Z,48.00
2019-04-07T10:18:05.398Z,48.30
2019-04-07T10:20:53.615Z,48.10
2019-04-07T10:23:40.290Z,48.20
2019-04-07T10:26:20.083Z,48.10
2019-04-07T10:29:16.564Z,48.00
2019-04-07T10:32:11.313Z,47.90
2019-04-07T10:35:19.192Z,48.00
2019-04-07T10:37:58.163Z,48.00
2019-04-07T10:40:47.629Z,48.20
2019-04-07T10:43:40.543Z,48.80
2019-04-07T10:46:36.245Z,48.30
2019-04-07T10:49:23.710Z,48.20
2019-04-07T10:52:11.418Z,48.30
2019-04-07T10:55:00.379Z,48.20
2019-04-07T10:57:49.404Z,48.30
2019-04-07T11:00:51.559Z,48.30
2019-04-07T11:03:40.493Z,48.50
2019-04-07T11:06:31.580Z,48.20
2019-04-07T11:09:22.235Z,48.30
2019-04-07T11:12:09.854Z,48.30
2019-04-07T11:14:58.981Z,48.40
2019-04-07T11:17:39.528Z,48.80
2019-04-07T11:20:37.377Z,48.90
2019-04-07T11:23:31.979Z,48.90
2019-04-07T11:26:16.729Z,48.90
2019-04-07T11:29:08.461Z,49.60
2019-04-07T11:31:45.121Z,49.80
2019-04-07T11:34:34.618Z,50.00
2019-04-07T11:37:14.308Z,50.10
2019-04-07T11:40:04.818Z,48.40
2019-04-07T11:42:48.018Z,48.00
2019-04-07T11:45:29.956Z,44.70
2019-04-07T11:48:35.012Z,45.50
2019-04-07T11:51:40.730Z,44.40
2019-04-07T11:54:25.190Z,45.00
2019-04-07T11:57:11.914Z,46.30
2019-04-07T12:00:04.772Z,43.80
2019-04-07T12:03:07.098Z,45.30
2019-04-07T12:05:46.625Z,46.10
2019-04-07T12:08:39.287Z,46.00
2019-04-07T12:11:24.511Z,44.20
2019-04-07T12:14:20.335Z,43.80
2019-04-07T12:17:09.458Z,43.60
2019-04-07T12:19:54.530Z,43.90
2019-04-07T12:22:44.079Z,44.70
2019-04-07T12:25:33.506Z,44.30
2019-04-07T12:28:17.870Z,41.30
2019-04-07T12:31:08.596Z,41.90
2019-04-07T12:33:55.456Z,41.50
2019-04-07T12:36:44.181Z,41.70
2019-04-07T12:39:33.660Z,41.40
2019-04-07T12:42:11.241Z,42.10
2019-04-07T12:45:00.321Z,43.50
2019-04-07T12:48:07.833Z,44.10
2019-04-07T12:51:00.822Z,44.30
2019-04-07T12:53:41.125Z,45.00
2019-04-07T12:56:31.712Z,45.30
2019-04-07T12:59:19.249Z,45.60
2019-04-07T13:02:17.922Z,45.90
2019-04-07T13:05:07.654Z,46.10
2019-04-07T13:07:56.522Z,46.20
2019-04-07T13:10:34.035Z,46.30
2019-04-07T13:13:29.506Z,45.90
2019-04-07T13:16:20.981Z,45.30
2019-04-07T13:19:15.490Z,46.30
2019-04-07T13:22:15.076Z,46.00
2019-04-07T13:25:04.727Z,43.70
2019-04-07T13:28:00.707Z,43.30
2019-04-07T13:30:53.070Z,45.90
2019-04-07T13:33:48.649Z,46.30
2019-04-07T13:36:51.902Z,47.10
2019-04-07T13:39:42.829Z,46.90
2019-04-07T13:42:36.763Z,46.70
2019-04-07T13:45:24.783Z,46.10
2019-04-07T13:48:15.801Z,45.20
2019-04-07T13:51:13.220Z,45.30
2019-04-07T13:53:53.276Z,45.40
2019-04-07T13:56:52.103Z,45.60
2019-04-07T13:59:52.294Z,45.80
2019-04-07T14:02:42.140Z,45.80
2019-04-07T14:05:21.282Z,46.00
2019-04-07T14:08:09.241Z,46.10
2019-04-07T14:10:47.211Z,46.40
2019-04-07T14:13:42.903Z,46.70
2019-04-07T14:16:21.216Z,47.20
2019-04-07T14:19:06.747Z,47.30
2019-04-07T14:21:56.365Z,47.50
2019-04-07T14:24:41.292Z,47.70
2019-04-07T14:27:24.117Z,47.90
2019-04-07T14:30:12.553Z,47.90
2019-04-07T14:33:08.407Z,47.70
2019-04-07T14:35:56.590Z,47.80
2019-04-07T14:39:05.263Z,47.80
2019-04-07T14:41:47.216Z,48.00
2019-04-07T14:44:48.988Z,48.20
2019-04-07T14:47:34.946Z,48.30
2019-04-07T14:50:25.131Z,48.50
2019-04-07T14:53:17.972Z,46.50
2019-04-07T14:55:57.157Z,47.00
2019-04-07T14:58:59.136Z,46.50
2019-04-07T15:01:48.028Z,45.80
2019-04-07T15:04:19.322Z,45.90
2019-04-07T15:07:04.028Z,46.60
2019-04-07T15:09:39.241Z,45.60
2019-04-07T15:12:25.200Z,47.10
2019-04-07T15:14:55.700Z,46.80
2019-04-07T15:17:27.151Z,50.00
2019-04-07T15:19:58.225Z,48.80
2019-04-07T15:22:30.850Z,48.30
2019-04-07T15:25:01.632Z,48.30
2019-04-07T15:27:32.659Z,48.30
2019-04-07T15:30:04.261Z,48.20
2019-04-07T15:32:35.943Z,48.30
2019-04-07T15:35:07.506Z,48.30
2019-04-07T15:37:40.633Z,48.20
2019-04-07T15:40:12.012Z,48.10
2019-04-07T15:42:46.013Z,48.00
2019-04-07T15:45:15.072Z,47.50
2019-04-07T15:47:47.161Z,47.40
2019-04-07T15:50:18.047Z,47.10
2019-04-07T15:52:48.712Z,46.90
2019-04-07T15:55:19.464Z,46.50
2019-04-07T15:57:54.286Z,46.80
2019-04-07T16:00:22.344Z,46.30
2019-04-07T16:02:53.644Z,45.70
2019-04-07T16:05:25.303Z,45.70
2019-04-07T16:07:56.238Z,46.40
2019-04-07T16:10:26.842Z,46.70
2019-04-07T16:12:59.331Z,46.60
2019-04-07T16:15:29.695Z,46.40
2019-04-07T16:18:03.385Z,51.00
2019-04-07T16:20:38.024Z,50.30
2019-04-07T16:23:05.021Z,49.10
2019-04-07T16:25:37.349Z,48.00
2019-04-07T16:28:11.409Z,46.20
2019-04-07T16:30:40.765Z,43.90
2019-04-07T16:33:11.459Z,42.10
2019-04-07T16:35:43.937Z,41.50
2019-04-07T16:38:15.177Z,41.20
2019-04-07T16:40:45.703Z,40.00
2019-04-07T16:43:18.621Z,39.70
2019-04-07T16:45:48.890Z,40.20
2019-04-07T16:48:19.752Z,44.20
2019-04-07T16:50:54.736Z,43.10
2019-04-07T16:53:22.889Z,42.30
2019-04-07T16:55:55.599Z,42.20
2019-04-07T16:58:26.094Z,42.70
2019-04-07T17:00:56.855Z,42.40
2019-04-07T17:03:28.962Z,42.80
2019-04-07T17:06:01.552Z,41.90
2019-04-07T17:08:33.763Z,45.40
2019-04-07T17:11:07.668Z,46.90
2019-04-07T17:13:41.286Z,44.10
2019-04-07T17:16:11.793Z,43.70
2019-04-07T17:18:43.263Z,44.20
2019-04-07T17:21:15.578Z,44.70
2019-04-07T17:23:47.515Z,44.30
2019-04-07T17:26:18.293Z,48.10
2019-04-07T17:28:50.017Z,48.30
2019-04-07T17:31:21.115Z,50.20
2019-04-07T17:33:52.407Z,52.60
2019-04-07T17:36:23.992Z,46.70
2019-04-07T17:39:20.559Z,44.40
2019-04-07T17:41:51.932Z,43.70
2019-04-07T17:44:49.211Z,42.90
2019-04-07T17:47:50.685Z,42.60
2019-04-07T17:50:49.790Z,42.40
2019-04-07T17:53:45.359Z,42.40
2019-04-07T17:56:36.847Z,42.90
2019-04-07T17:59:30.574Z,43.60
2019-04-07T18:02:31.420Z,42.70
2019-04-07T18:05:11.496Z,42.20
2019-04-07T18:07:56.495Z,42.30
2019-04-07T18:10:48.992Z,42.20
2019-04-07T18:13:45.032Z,42.20
2019-04-07T18:16:46.185Z,42.40
2019-04-07T18:19:51.644Z,42.40
2019-04-07T18:22:45.136Z,43.40
2019-04-07T18:25:27.383Z,45.30
2019-04-07T18:28:24.152Z,44.10
2019-04-07T18:31:20.034Z,43.30
2019-04-07T18:34:08.450Z,42.70
2019-04-07T18:36:58.400Z,42.50
2019-04-07T18:40:01.987Z,41.90
2019-04-07T18:42:57.753Z,41.90
2019-04-07T18:45:54.710Z,42.20
2019-04-07T18:48:45.809Z,42.30
2019-04-07T18:51:48.386Z,41.80
2019-04-07T18:54:48.387Z,43.10
2019-04-07T18:57:40.072Z,43.00
2019-04-07T19:00:31.622Z,43.10
2019-04-07T19:03:11.900Z,43.30
2019-04-07T19:06:08.701Z,42.10
2019-04-07T19:09:00.054Z,42.70
2019-04-07T19:12:13.272Z,42.70
2019-04-07T19:15:04.532Z,43.60
2019-04-07T19:17:58.928Z,43.80
2019-04-07T19:20:46.865Z,43.70
2019-04-07T19:23:39.894Z,44.70
2019-04-07T19:26:42.217Z,44.70
2019-04-07T19:29:26.242Z,44.30
2019-04-07T19:32:08.791Z,44.40
2019-04-07T19:34:57.258Z,44.40
2019-04-07T19:37:56.076Z,45.30
2019-04-07T19:40:47.117Z,45.00
2019-04-07T19:43:55.295Z,45.20
2019-04-07T19:46:44.882Z,44.70
2019-04-07T19:49:47.602Z,47.30
2019-04-07T19:52:43.998Z,51.20
2019-04-07T19:55:29.157Z,49.90
2019-04-07T19:58:21.883Z,49.80
2019-04-07T20:01:08.646Z,49.30
2019-04-07T20:03:56.670Z,49.30
2019-04-07T20:06:45.289Z,48.90
2019-04-07T20:09:52.997Z,48.70
2019-04-07T20:12:48.337Z,48.60
2019-04-07T20:15:42.955Z,48.30
2019-04-07T20:18:25.526Z,48.00
2019-04-07T20:21:21.182Z,48.40
2019-04-07T20:24:10.545Z,47.90
2019-04-07T20:26:57.553Z,48.10
2019-04-07T20:29:56.255Z,47.80
2019-04-07T20:32:48.381Z,47.50
2019-04-07T20:35:31.499Z,47.90
2019-04-07T20:38:37.916Z,47.90
2019-04-07T20:41:26.714Z,47.70
2019-04-07T20:44:15.189Z,47.80
2019-04-07T20:47:07.871Z,47.70
2019-04-07T20:50:07.590Z,47.40
2019-04-07T20:53:08.546Z,47.40
2019-04-07T20:56:03.858Z,47.70
2019-04-07T20:58:55.829Z,47.70
2019-04-07T21:01:53.971Z,47.60
2019-04-07T21:04:34.234Z,47.70
2019-04-07T21:07:23.526Z,48.00
2019-04-07T21:10:00.025Z,47.90
2019-04-07T21:12:49.467Z,47.80
2019-04-07T21:15:55.240Z,47.80
2019-04-07T21:18:37.068Z,47.50
2019-04-07T21:21:34.375Z,47.80
2019-04-07T21:24:23.860Z,48.00
2019-04-07T21:27:12.330Z,47.90
2019-04-07T21:29:59.066Z,47.90
2019-04-07T21:32:53.622Z,48.00
2019-04-07T21:35:37.234Z,47.80
2019-04-07T21:38:31.230Z,48.70
2019-04-07T21:41:22.814Z,48.20
2019-04-07T21:44:06.041Z,47.90
2019-04-07T21:46:54.766Z,47.80
2019-04-07T21:49:47.789Z,48.00
2019-04-07T21:52:26.337Z,48.30
2019-04-07T21:55:13.713Z,48.30
2019-04-07T21:58:01.063Z,48.40
2019-04-07T22:00:49.321Z,48.10
2019-04-07T22:03:26.926Z,48.40
2019-04-07T22:06:15.054Z,47.90
2019-04-07T22:08:50.494Z,47.80
2019-04-07T22:11:25.386Z,47.70
2019-04-07T22:13:53.513Z,47.80
2019-04-07T22:16:24.729Z,47.90
2019-04-07T22:18:56.923Z,47.90
2019-04-07T22:21:27.777Z,48.50
2019-04-07T22:23:58.569Z,48.70
2019-04-07T22:26:30.247Z,48.50
2019-04-07T22:29:03.826Z,48.90
2019-04-07T22:31:51.979Z,48.90
2019-04-07T22:34:23.044Z,48.60
2019-04-07T22:36:53.853Z,48.70
2019-04-07T22:39:27.492Z,48.40
2019-04-07T22:41:57.395Z,48.70
2019-04-07T22:44:29.350Z,48.90
2019-04-07T22:47:00.088Z,48.90
2019-04-07T22:49:32.161Z,49.00
2019-04-07T22:52:03.549Z,49.30
2019-04-07T22:54:34.844Z,49.50
2019-04-07T22:57:11.105Z,49.20
2019-04-07T22:59:38.425Z,49.00
2019-04-07T23:02:09.378Z,48.70
2019-04-07T23:04:40.537Z,48.70
2019-04-07T23:07:11.741Z,48.70
2019-04-07T23:09:42.401Z,48.70
2019-04-07T23:12:13.356Z,48.80
2019-04-07T23:14:44.229Z,48.70
2019-04-07T23:17:15.454Z,48.90
2019-04-07T23:19:46.273Z,48.90
2019-04-07T23:22:18.043Z,49.00
2019-04-07T23:24:49.100Z,48.90
2019-04-07T23:27:20.054Z,49.00
2019-04-07T23:29:50.868Z,49.20
2019-04-07T23:32:22.001Z,49.10
2019-04-07T23:34:52.848Z,49.30
2019-04-07T23:37:24.233Z,49.50
2019-04-07T23:39:55.542Z,49.80
2019-04-07T23:42:27.124Z,49.50
2019-04-07T23:44:58.633Z,49.60
2019-04-07T23:47:29.502Z,49.60
2019-04-07T23:50:00.767Z,49.70
2019-04-07T23:52:31.620Z,49.60
2019-04-07T23:55:02.541Z,49.50
2019-04-07T23:57:33.144Z,49.80
